Main page
METAR-TAF:

METAR-TAF

Airports :

Appleton Municipal Airport

Appleton, Minnesota, United States

latitude: 45-13-39N, longitude: 096-00-15W, elevation: 1017 ft

Current weather observation

The report was made 30 minutes ago, at 21:53 UTC
Wind 20 mph from the East/Southeast
Temperature 54°F
Humidity 67%
Pressure 29.83 in. Hg
Visibility: 10 miles
Scattered clouds at a height of 3100 ft

METAR: KAQP 012153Z AUTO 11017KT 10SM SCT031 12/06 A2983 RMK AO2

Time: 17:23 (22:23 UTC)


TAF: missing

Weather observations and forecasts of more than 4000 airports (METAR and TAF reports).

The available stations are represented by yellow and red dots on the map.

Hover mouse over dot to see the name of the station.

Then click to see weather observations and forecasts.

To change the map : click on the green buttons with a black cross to zoom in, on the green button with a dash to zoom out, or on the green arrows for adjacent maps.


METAR-TAF: